Time;durP1;ratioP1;P1;durP2;ratioP2;P2;SDS_P1;SDS_P2;PMS_P1;PMS_P2;Temp;Humidity;BMP_temperature;BMP_pressure;BME280_temperature;BME280_humidity;BME280_pressure;Samples;Min_cycle;Max_cycle;Signal;HPM_P1;HPM_P2
2023/01/19 00:02:30;;;;;;;12.52;11.15;;;;;;;2.81;100.00;100045.69;5308235;28;20058;-77
2023/01/19 00:05:03;;;;;;;18.67;12.38;;;;;;;2.77;100.00;100045.06;5307268;28;20028;-76
2023/01/19 00:07:34;;;;;;;15.00;11.43;;;;;;;2.82;100.00;100055.09;5302842;28;20020;-74
2023/01/19 00:10:06;;;;;;;14.18;11.27;;;;;;;2.76;100.00;100045.16;5289087;28;20477;-77
2023/01/19 00:12:38;;;;;;;14.90;12.13;;;;;;;2.75;100.00;100046.91;5307495;28;20027;-76
2023/01/19 00:15:10;;;;;;;15.35;12.43;;;;;;;2.80;100.00;100051.78;5304822;28;20031;-77
2023/01/19 00:17:41;;;;;;;15.45;12.48;;;;;;;2.77;100.00;100033.91;5306378;28;20397;-75
2023/01/19 00:20:12;;;;;;;13.98;12.27;;;;;;;2.90;100.00;100048.50;5306198;28;20024;-77
2023/01/19 00:22:49;;;;;;;13.70;11.55;;;;;;;2.89;100.00;100051.19;5299421;28;20492;-76
2023/01/19 00:25:20;;;;;;;17.98;12.52;;;;;;;2.86;100.00;100057.38;5284770;28;20023;-76
2023/01/19 00:27:52;;;;;;;15.63;11.95;;;;;;;2.90;100.00;100058.84;5306225;28;20109;-77
2023/01/19 00:30:23;;;;;;;13.35;11.40;;;;;;;2.93;100.00;100065.59;5291400;28;20524;-75
2023/01/19 00:32:54;;;;;;;14.50;11.68;;;;;;;2.95;100.00;100066.28;5302314;28;20038;-75
2023/01/19 00:35:26;;;;;;;13.65;11.38;;;;;;;3.01;100.00;100073.66;5309734;28;20027;-77
2023/01/19 00:37:58;;;;;;;12.55;11.13;;;;;;;3.01;100.00;100072.84;5291953;28;20153;-75
2023/01/19 00:40:29;;;;;;;13.10;11.13;;;;;;;2.98;100.00;100071.28;5310953;28;20024;-77
2023/01/19 00:43:01;;;;;;;16.17;11.90;;;;;;;2.99;100.00;100072.09;5303424;28;20038;-76
2023/01/19 00:45:33;;;;;;;13.90;12.20;;;;;;;2.93;100.00;100063.00;5307610;28;20103;-77
2023/01/19 00:48:04;;;;;;;15.15;11.05;;;;;;;3.00;100.00;100056.50;5309629;28;20111;-75
2023/01/19 00:50:36;;;;;;;14.10;11.57;;;;;;;2.99;100.00;100064.34;5298807;28;20032;-77
2023/01/19 00:53:07;;;;;;;14.55;11.23;;;;;;;2.95;100.00;100049.94;5280392;28;20031;-75
2023/01/19 00:55:38;;;;;;;13.57;11.55;;;;;;;2.87;100.00;100043.53;5305512;28;20020;-76
2023/01/19 00:58:10;;;;;;;15.85;11.20;;;;;;;2.88;100.00;100055.53;5306308;28;20043;-75
2023/01/19 01:00:41;;;;;;;16.42;11.25;;;;;;;2.81;100.00;100045.69;5303119;28;20039;-77
2023/01/19 01:03:12;;;;;;;17.05;11.93;;;;;;;2.84;100.00;100048.91;5299061;28;20027;-78
2023/01/19 01:05:44;;;;;;;12.48;10.43;;;;;;;2.90;100.00;100052.84;5305031;28;20024;-76
2023/01/19 01:08:15;;;;;;;14.57;11.40;;;;;;;2.88;100.00;100055.53;5304983;28;20023;-75
2023/01/19 01:10:46;;;;;;;14.38;10.82;;;;;;;2.84;100.00;100051.50;5311591;28;20054;-76
2023/01/19 01:13:18;;;;;;;13.98;11.48;;;;;;;2.80;100.00;100039.66;5305790;28;20030;-77
2023/01/19 01:15:51;;;;;;;13.35;10.70;;;;;;;2.90;100.00;100069.19;5304225;28;20619;-76
2023/01/19 01:18:22;;;;;;;13.63;11.13;;;;;;;2.92;100.00;100066.53;5304483;28;20031;-78
2023/01/19 01:21:05;;;;;;;16.02;11.73;;;;;;;3.07;100.00;100062.06;5304450;28;20028;-75
2023/01/19 01:23:36;;;;;;;17.38;9.88;;;;;;;2.91;100.00;100057.91;5306804;28;20073;-75
2023/01/19 01:26:08;;;;;;;12.52;10.57;;;;;;;2.96;100.00;100065.41;5291424;28;20472;-75
2023/01/19 01:28:39;;;;;;;13.73;10.30;;;;;;;2.98;100.00;100060.94;5305455;28;20080;-76
2023/01/19 01:31:10;;;;;;;13.80;10.30;;;;;;;3.03;100.00;100064.06;5309467;28;20031;-75
2023/01/19 01:33:41;;;;;;;13.27;9.95;;;;;;;3.07;100.00;100067.25;5303854;28;20481;-76
2023/01/19 01:36:13;;;;;;;18.42;10.15;;;;;;;3.09;100.00;100058.47;5308557;28;20051;-76
2023/01/19 01:38:44;;;;;;;15.15;9.38;;;;;;;3.13;100.00;100069.44;5306548;28;20077;-76
2023/01/19 01:41:15;;;;;;;13.98;9.30;;;;;;;3.19;100.00;100060.47;5306225;28;20024;-76
2023/01/19 01:43:55;;;;;;;13.27;9.20;;;;;;;3.30;100.00;100074.34;5290157;28;20019;-75
2023/01/19 01:46:29;;;;;;;11.55;9.07;;;;;;;3.24;100.00;100066.97;5302379;28;20035;-75
2023/01/19 01:49:13;;;;;;;11.90;9.05;;;;;;;3.36;100.00;100084.25;5302142;28;20024;-76
2023/01/19 01:51:49;;;;;;;10.50;8.77;;;;;;;3.21;100.00;100072.34;5284964;28;20032;-75
2023/01/19 01:54:25;;;;;;;14.43;9.48;;;;;;;3.28;100.00;100078.78;5302845;28;20027;-75
2023/01/19 01:57:01;;;;;;;12.02;8.88;;;;;;;3.27;100.00;100078.91;5305655;28;20027;-75
2023/01/19 01:59:37;;;;;;;14.00;8.80;;;;;;;3.03;100.00;100084.75;5300856;28;20016;-77
2023/01/19 02:05:25;;;;;;;12.02;8.18;;;;;;;3.05;100.00;100088.06;5308328;28;20031;-75
2023/01/19 02:13:49;;;;;;;12.43;7.85;;;;;;;2.70;100.00;100081.78;5300015;28;20023;-76
2023/01/19 02:16:21;;;;;;;12.00;8.00;;;;;;;2.69;100.00;100088.72;5301249;28;20028;-75
2023/01/19 02:18:52;;;;;;;11.95;7.93;;;;;;;2.67;100.00;100086.19;5308647;28;20040;-76
2023/01/19 02:21:45;;;;;;;13.20;7.97;;;;;;;2.77;100.00;100076.09;5304529;28;20186;-76
2023/01/19 02:24:17;;;;;;;12.90;7.47;;;;;;;2.73;100.00;100092.75;5302173;28;20466;-76
2023/01/19 02:26:49;;;;;;;15.85;8.82;;;;;;;2.69;100.00;100093.88;5306241;28;20293;-77
2023/01/19 02:29:24;;;;;;;11.55;8.93;;;;;;;2.75;100.00;100100.41;5301779;28;20020;-76
2023/01/19 02:31:56;;;;;;;12.15;8.50;;;;;;;2.70;100.00;100103.28;5304618;28;20023;-76
2023/01/19 02:34:28;;;;;;;15.38;8.45;;;;;;;2.71;100.00;100102.34;5306594;28;20039;-76
2023/01/19 02:37:08;;;;;;;10.73;8.80;;;;;;;2.79;100.00;100107.88;5289122;28;20035;-76
2023/01/19 02:39:56;;;;;;;14.95;9.10;;;;;;;2.86;100.00;100108.31;5304570;28;20038;-77
2023/01/19 02:42:36;;;;;;;13.77;8.70;;;;;;;2.79;100.00;100107.88;5303516;28;20076;-77
2023/01/19 02:45:08;;;;;;;13.15;8.18;;;;;;;2.59;100.00;100101.38;5305267;28;20031;-75
2023/01/19 02:47:48;;;;;;;13.85;9.48;;;;;;;2.67;100.00;100121.59;5303488;28;20070;-77
2023/01/19 02:50:37;;;;;;;13.73;8.88;;;;;;;2.73;100.00;100115.19;5305912;28;20058;-76
2023/01/19 02:53:25;;;;;;;13.35;9.80;;;;;;;2.66;100.00;100125.94;5302447;28;20511;-76
2023/01/19 02:56:33;;;;;;;12.98;8.65;;;;;;;2.75;100.00;100121.91;5298964;28;20071;-77
2023/01/19 02:59:26;;;;;;;11.88;8.60;;;;;;;2.50;100.00;100124.41;5302802;28;20020;-74
2023/01/19 03:02:13;;;;;;;12.90;9.30;;;;;;;2.56;100.00;100126.59;5302607;28;20063;-76
2023/01/19 03:04:52;;;;;;;11.35;9.27;;;;;;;2.46;100.00;100126.34;5302220;28;20031;-76
2023/01/19 03:07:36;;;;;;;11.18;9.30;;;;;;;2.50;100.00;100129.56;5304847;28;20099;-76
2023/01/19 03:10:16;;;;;;;13.30;10.02;;;;;;;2.34;100.00;100127.09;5304042;28;20034;-76
2023/01/19 03:13:09;;;;;;;10.57;9.55;;;;;;;2.38;100.00;100132.00;5307326;28;20027;-76
2023/01/19 03:15:56;;;;;;;12.52;11.07;;;;;;;2.46;100.00;100134.09;5302475;28;20028;-75
2023/01/19 03:18:30;;;;;;;12.20;10.40;;;;;;;2.12;100.00;100133.63;5310238;28;20024;-76
2023/01/19 03:21:05;;;;;;;14.10;10.70;;;;;;;2.17;100.00;100135.91;5311210;28;20080;-76
2023/01/19 03:23:39;;;;;;;11.52;10.32;;;;;;;2.18;100.00;100145.31;5308073;28;20035;-76
2023/01/19 03:26:16;;;;;;;12.73;10.77;;;;;;;2.16;100.00;100145.44;5288942;28;20024;-76
2023/01/19 03:28:50;;;;;;;13.00;9.98;;;;;;;2.09;100.00;100145.91;5310411;28;20045;-75
2023/01/19 03:31:27;;;;;;;14.40;11.18;;;;;;;2.15;100.00;100148.09;5310631;28;20238;-76
2023/01/19 03:34:04;;;;;;;11.45;10.15;;;;;;;2.09;100.00;100143.31;5309689;28;20027;-76
2023/01/19 03:36:47;;;;;;;11.55;10.32;;;;;;;2.05;100.00;100153.00;5307552;28;20109;-75
2023/01/19 03:39:24;;;;;;;11.95;10.63;;;;;;;2.07;100.00;100158.06;5302494;28;20031;-76
2023/01/19 03:42:00;;;;;;;11.45;10.23;;;;;;;2.05;100.00;100175.44;5289419;28;20036;-76
2023/01/19 03:44:35;;;;;;;12.25;10.50;;;;;;;2.02;100.00;100183.34;5305642;28;20024;-75
2023/01/19 03:47:10;;;;;;;10.82;9.73;;;;;;;2.01;100.00;100168.75;5310932;28;20050;-76
2023/01/19 03:49:44;;;;;;;10.60;9.52;;;;;;;1.93;100.00;100172.66;5294763;28;20111;-76
2023/01/19 03:52:15;;;;;;;10.10;9.10;;;;;;;1.93;100.00;100175.22;5302559;28;20491;-76
2023/01/19 03:54:47;;;;;;;10.98;9.88;;;;;;;1.94;100.00;100183.81;5308376;28;20032;-75
2023/01/19 03:57:18;;;;;;;10.15;9.07;;;;;;;1.94;100.00;100189.81;5308556;28;20475;-74
2023/01/19 03:59:49;;;;;;;10.23;9.23;;;;;;;1.94;100.00;100183.81;5306589;28;20063;-76
2023/01/19 04:02:21;;;;;;;9.20;8.30;;;;;;;1.92;100.00;100193.38;5306452;28;20032;-75
2023/01/19 04:04:52;;;;;;;9.73;8.43;;;;;;;1.95;100.00;100208.72;5307121;28;20126;-75
2023/01/19 04:07:23;;;;;;;10.23;8.18;;;;;;;1.90;100.00;100192.66;5307755;28;20027;-75
2023/01/19 04:09:54;;;;;;;8.90;8.00;;;;;;;1.85;100.00;100198.06;5308330;28;20094;-75
2023/01/19 04:12:26;;;;;;;8.45;7.65;;;;;;;1.88;100.00;100202.25;5291133;28;20020;-75
2023/01/19 04:14:57;;;;;;;8.13;7.38;;;;;;;1.90;100.00;100203.00;5308018;28;20029;-75
2023/01/19 04:17:30;;;;;;;7.15;6.53;;;;;;;1.92;100.00;100209.72;5306425;28;20028;-76
2023/01/19 04:20:01;;;;;;;6.47;5.88;;;;;;;1.93;100.00;100216.56;5310701;28;20030;-76
2023/01/19 04:22:33;;;;;;;6.25;5.65;;;;;;;1.94;100.00;100225.13;5287450;28;20032;-75
2023/01/19 04:25:06;;;;;;;5.78;5.28;;;;;;;1.94;100.00;100223.38;5304179;28;20477;-75
2023/01/19 04:27:37;;;;;;;5.28;4.78;;;;;;;1.95;100.00;100242.28;5288841;28;20062;-76
2023/01/19 04:30:09;;;;;;;4.75;3.97;;;;;;;1.93;100.00;100238.94;5286351;28;20109;-76
2023/01/19 04:32:40;;;;;;;4.20;3.78;;;;;;;1.89;100.00;100240.06;5307123;28;20059;-75
2023/01/19 04:35:11;;;;;;;4.18;3.75;;;;;;;1.86;100.00;100240.25;5306916;28;20023;-76
2023/01/19 04:37:43;;;;;;;3.85;3.53;;;;;;;1.93;100.00;100244.13;5303984;28;20134;-76
2023/01/19 04:40:15;;;;;;;4.13;3.17;;;;;;;1.93;100.00;100242.41;5306698;28;20020;-75
2023/01/19 04:42:46;;;;;;;3.72;3.35;;;;;;;1.89;100.00;100238.31;5303898;28;20031;-76
2023/01/19 04:45:18;;;;;;;3.58;3.17;;;;;;;1.97;100.00;100247.34;5309438;28;20103;-76
2023/01/19 04:47:50;;;;;;;3.42;3.13;;;;;;;1.90;100.00;100239.97;5288524;28;20038;-76
2023/01/19 04:50:21;;;;;;;4.00;3.13;;;;;;;1.94;100.00;100251.81;5309332;28;20073;-75
2023/01/19 04:52:52;;;;;;;2.92;2.53;;;;;;;1.93;100.00;100241.53;5302956;28;20320;-75
2023/01/19 04:55:24;;;;;;;3.75;2.85;;;;;;;1.98;100.00;100226.63;5308038;28;20481;-75
2023/01/19 04:57:56;;;;;;;3.20;2.65;;;;;;;1.93;100.00;100221.72;5305579;28;20023;-75
2023/01/19 05:00:27;;;;;;;10.48;3.58;;;;;;;1.99;100.00;100209.38;5305018;28;20034;-75
2023/01/19 05:02:59;;;;;;;4.68;3.97;;;;;;;1.97;100.00;100198.28;5308827;28;20491;-74
2023/01/19 05:05:32;;;;;;;4.95;4.32;;;;;;;1.88;100.00;100177.25;5307533;28;20032;-74
2023/01/19 05:08:03;;;;;;;4.70;3.63;;;;;;;1.91;100.00;100181.41;5304497;28;20038;-74
2023/01/19 05:10:35;;;;;;;3.83;3.42;;;;;;;1.93;100.00;100179.53;5303616;28;20027;-74
2023/01/19 05:13:06;;;;;;;4.72;3.50;;;;;;;1.89;100.00;100188.41;5307619;28;20023;-74
2023/01/19 05:15:37;;;;;;;3.88;2.97;;;;;;;1.88;100.00;100171.25;5296317;28;20500;-74
2023/01/19 05:18:09;;;;;;;3.92;3.17;;;;;;;1.91;100.00;100178.81;5306198;28;20027;-74
2023/01/19 05:20:40;;;;;;;5.30;3.90;;;;;;;1.93;100.00;100177.81;5305987;28;20028;-74
2023/01/19 05:23:12;;;;;;;5.95;4.22;;;;;;;2.00;100.00;100183.44;5302020;28;20036;-74
2023/01/19 05:25:43;;;;;;;4.22;3.83;;;;;;;1.97;100.00;100186.22;5304899;28;20133;-74
2023/01/19 05:28:15;;;;;;;6.18;5.30;;;;;;;2.01;100.00;100197.16;5303244;28;20024;-74
2023/01/19 05:30:48;;;;;;;6.22;5.63;;;;;;;2.02;100.00;100209.19;5305572;28;20043;-74
2023/01/19 05:33:20;;;;;;;7.80;7.05;;;;;;;2.02;100.00;100215.19;5309931;28;20030;-74
2023/01/19 05:35:52;;;;;;;10.63;8.27;;;;;;;1.93;100.00;100203.66;5306380;28;20039;-74
2023/01/19 05:38:24;;;;;;;9.00;8.07;;;;;;;1.98;100.00;100205.97;5306542;28;20028;-75
2023/01/19 05:40:57;;;;;;;11.35;8.82;;;;;;;1.95;100.00;100214.69;5304400;28;20538;-75
2023/01/19 05:43:28;;;;;;;9.77;8.88;;;;;;;1.95;100.00;100212.13;5288131;28;20032;-75
2023/01/19 05:45:59;;;;;;;9.13;8.23;;;;;;;1.96;100.00;100210.38;5303033;28;20042;-74
2023/01/19 05:48:31;;;;;;;9.55;8.57;;;;;;;1.93;100.00;100207.97;5305585;28;20370;-74
2023/01/19 05:51:03;;;;;;;9.55;8.55;;;;;;;1.96;100.00;100223.28;5304039;28;20068;-74
2023/01/19 05:53:35;;;;;;;10.07;8.95;;;;;;;1.97;100.00;100226.69;5305955;28;20032;-74
2023/01/19 05:56:08;;;;;;;10.57;9.32;;;;;;;1.92;100.00;100211.47;5302152;28;20035;-74
2023/01/19 05:58:39;;;;;;;10.70;9.15;;;;;;;1.98;100.00;100218.03;5287391;28;20047;-75
2023/01/19 06:01:10;;;;;;;10.35;9.35;;;;;;;1.94;100.00;100210.47;5300150;28;20070;-75
2023/01/19 06:03:42;;;;;;;9.38;8.32;;;;;;;1.93;100.00;100206.22;5301938;28;20528;-75
2023/01/19 06:06:14;;;;;;;9.57;8.43;;;;;;;1.96;100.00;100220.69;5306854;28;20028;-75
2023/01/19 06:08:45;;;;;;;10.55;8.57;;;;;;;2.00;100.00;100229.94;5304163;28;20024;-75
2023/01/19 06:11:16;;;;;;;10.23;9.13;;;;;;;2.00;100.00;100234.28;5303713;28;20400;-75
2023/01/19 06:13:48;;;;;;;10.25;9.10;;;;;;;2.00;100.00;100229.09;5304069;28;20481;-75
2023/01/19 06:16:19;;;;;;;10.45;9.35;;;;;;;2.03;100.00;100236.69;5304574;28;20110;-75
2023/01/19 06:18:50;;;;;;;12.07;9.18;;;;;;;2.02;100.00;100241.00;5300677;28;20031;-75
2023/01/19 06:21:22;;;;;;;9.45;8.55;;;;;;;1.98;100.00;100252.44;5298824;28;20042;-75
2023/01/19 06:23:54;;;;;;;11.13;9.93;;;;;;;1.99;100.00;100251.53;5282181;28;20134;-74
2023/01/19 06:26:25;;;;;;;10.68;9.68;;;;;;;1.86;100.00;100240.25;5284456;28;20144;-74
2023/01/19 06:28:57;;;;;;;12.68;10.15;;;;;;;1.93;100.00;100236.38;5278243;28;20469;-74
2023/01/19 06:31:28;;;;;;;13.25;11.48;;;;;;;2.03;100.00;100249.59;5273857;28;20101;-74
2023/01/19 06:33:59;;;;;;;12.52;11.32;;;;;;;2.00;100.00;100253.19;5278220;28;20028;-75
2023/01/19 06:36:31;;;;;;;12.63;11.32;;;;;;;2.04;100.00;100264.16;5281109;28;20029;-74
2023/01/19 06:39:04;;;;;;;13.35;11.77;;;;;;;1.96;100.00;100251.69;5282254;28;20096;-74
2023/01/19 06:41:36;;;;;;;14.07;12.43;;;;;;;2.03;100.00;100268.50;5285302;28;20027;-74
2023/01/19 06:44:07;;;;;;;13.45;12.15;;;;;;;2.01;100.00;100266.94;5289191;28;20384;-74
2023/01/19 06:46:39;;;;;;;16.58;12.98;;;;;;;2.02;100.00;100261.69;5266706;28;20147;-74
2023/01/19 06:49:10;;;;;;;14.75;13.30;;;;;;;2.03;100.00;100262.50;5284240;28;20020;-74
2023/01/19 06:51:41;;;;;;;16.73;15.00;;;;;;;1.97;100.00;100271.47;5288464;28;20390;-75
2023/01/19 06:54:13;;;;;;;16.67;14.65;;;;;;;2.04;100.00;100265.00;5288647;28;20500;-74
2023/01/19 06:56:44;;;;;;;18.23;16.40;;;;;;;2.07;100.00;100279.50;5285572;28;20028;-74
2023/01/19 06:59:15;;;;;;;19.08;17.08;;;;;;;2.05;100.00;100282.19;5287926;28;20093;-74
2023/01/19 07:01:47;;;;;;;18.60;16.80;;;;;;;1.99;100.00;100284.28;5285636;28;20028;-75
2023/01/19 07:04:18;;;;;;;19.13;17.20;;;;;;;2.07;100.00;100293.25;5285589;28;20028;-74
2023/01/19 07:06:49;;;;;;;19.25;17.35;;;;;;;2.11;100.00;100293.91;5285717;28;20028;-75
2023/01/19 07:09:21;;;;;;;19.35;16.48;;;;;;;2.12;100.00;100288.66;5287469;28;20043;-74
2023/01/19 07:11:53;;;;;;;19.33;17.25;;;;;;;2.15;100.00;100308.28;5287412;28;20027;-74
2023/01/19 07:14:29;;;;;;;21.75;17.52;;;;;;;2.09;100.00;100288.00;5285222;28;20028;-74
2023/01/19 07:17:01;;;;;;;20.52;17.92;;;;;;;2.22;100.00;100313.94;5286130;28;20056;-75
2023/01/19 07:19:34;;;;;;;24.23;20.30;;;;;;;2.19;100.00;100309.78;5282058;28;20549;-74
2023/01/19 07:22:05;;;;;;;24.88;20.15;;;;;;;2.25;100.00;100313.78;5274807;28;20044;-74
2023/01/19 07:24:37;;;;;;;24.33;20.45;;;;;;;2.31;100.00;100313.38;5306572;28;20416;-74
2023/01/19 07:27:10;;;;;;;23.05;20.48;;;;;;;2.32;100.00;100325.41;5302825;28;20111;-75
2023/01/19 07:29:41;;;;;;;29.02;21.48;;;;;;;2.30;100.00;100322.06;5299805;28;20542;-75
2023/01/19 07:32:13;;;;;;;24.10;20.13;;;;;;;2.32;100.00;100334.00;5307025;28;20027;-75
2023/01/19 07:34:45;;;;;;;21.05;18.88;;;;;;;2.33;100.00;100329.66;5306678;28;20111;-75
2023/01/19 07:37:16;;;;;;;21.08;18.77;;;;;;;2.34;100.00;100336.47;5305872;28;20038;-75
2023/01/19 07:39:47;;;;;;;21.85;19.48;;;;;;;2.30;100.00;100335.00;5306032;28;20020;-75
2023/01/19 07:42:18;;;;;;;32.60;19.60;;;;;;;2.19;100.00;100333.88;5300234;28;20060;-75
2023/01/19 07:44:50;;;;;;;25.30;18.25;;;;;;;2.25;100.00;100344.78;5302284;28;20064;-75
2023/01/19 07:47:21;;;;;;;24.67;17.55;;;;;;;2.21;100.00;100338.97;5299258;28;20559;-75
2023/01/19 07:49:52;;;;;;;23.23;17.73;;;;;;;2.18;100.00;100347.72;5300910;28;20040;-75
2023/01/19 07:52:24;;;;;;;23.48;18.30;;;;;;;2.24;100.00;100361.22;5304509;28;20507;-75
2023/01/19 07:54:55;;;;;;;25.83;18.70;;;;;;;2.23;100.00;100362.13;5307533;28;20138;-75
2023/01/19 07:57:27;;;;;;;21.23;17.33;;;;;;;2.22;100.00;100358.72;5304247;28;20054;-76
2023/01/19 07:59:58;;;;;;;20.83;18.08;;;;;;;2.23;100.00;100362.13;5307724;28;20105;-75
2023/01/19 08:02:30;;;;;;;21.83;18.60;;;;;;;2.26;100.00;100367.13;5306344;28;20030;-75
2023/01/19 08:05:02;;;;;;;21.88;18.42;;;;;;;2.24;100.00;100374.16;5303335;28;20419;-75
2023/01/19 08:07:33;;;;;;;29.52;18.45;;;;;;;2.17;100.00;100365.91;5300856;28;20039;-75
2023/01/19 08:10:05;;;;;;;26.67;19.75;;;;;;;2.17;100.00;100374.47;5305477;28;20032;-75
2023/01/19 08:12:36;;;;;;;28.55;20.15;;;;;;;2.14;100.00;100371.25;5306256;28;20028;-74
2023/01/19 08:15:09;;;;;;;30.20;20.67;;;;;;;2.16;100.00;100378.00;5304279;28;20081;-74
2023/01/19 08:17:40;;;;;;;28.83;20.98;;;;;;;2.14;100.00;100384.16;5304033;28;20036;-75
2023/01/19 08:20:12;;;;;;;40.33;22.70;;;;;;;2.11;100.00;100380.00;5304049;28;20052;-75
2023/01/19 08:22:46;;;;;;;31.52;20.90;;;;;;;2.22;100.00;100388.91;5296266;28;20059;-76
2023/01/19 08:25:17;;;;;;;35.22;22.38;;;;;;;2.05;100.00;100384.69;5306962;28;20608;-75
2023/01/19 08:27:48;;;;;;;31.23;22.10;;;;;;;2.14;100.00;100395.31;5306336;28;20111;-75
2023/01/19 08:30:20;;;;;;;35.80;24.08;;;;;;;2.06;100.00;100389.78;5305115;28;20020;-75
2023/01/19 08:32:56;;;;;;;30.90;22.05;;;;;;;2.16;100.00;100410.75;5306902;28;20595;-76
2023/01/19 08:35:42;;;;;;;36.75;22.40;;;;;;;2.27;100.00;100402.38;5305064;28;20516;-75
2023/01/19 08:38:14;;;;;;;30.92;22.13;;;;;;;2.18;100.00;100411.50;5306750;28;20103;-76
2023/01/19 08:40:45;;;;;;;35.60;24.35;;;;;;;2.06;100.00;100402.69;5302853;28;20497;-76
2023/01/19 08:43:17;;;;;;;32.65;23.13;;;;;;;2.18;100.00;100421.84;5299976;28;20059;-75
2023/01/19 08:45:51;;;;;;;40.25;22.20;;;;;;;2.25;100.00;100411.97;5304562;28;20030;-76
2023/01/19 08:48:23;;;;;;;35.08;23.65;;;;;;;2.21;100.00;100432.00;5307699;28;20028;-75
2023/01/19 08:50:54;;;;;;;35.10;23.88;;;;;;;2.20;100.00;100427.75;5303373;28;20027;-75
2023/01/19 08:53:26;;;;;;;40.08;23.58;;;;;;;2.22;100.00;100438.00;5306203;28;20495;-75
2023/01/19 08:56:00;;;;;;;38.25;23.35;;;;;;;2.19;100.00;100437.25;5304238;28;20102;-75
2023/01/19 08:58:31;;;;;;;39.70;24.90;;;;;;;2.19;100.00;100439.00;5301989;28;20031;-75
2023/01/19 09:01:02;;;;;;;46.03;25.33;;;;;;;2.26;100.00;100445.47;5304256;28;20026;-75
2023/01/19 09:03:35;;;;;;;38.15;24.02;;;;;;;2.21;100.00;100429.41;5283357;28;20027;-75
2023/01/19 09:06:07;;;;;;;41.83;25.02;;;;;;;2.31;100.00;100443.50;5306593;28;20053;-75
2023/01/19 09:08:38;;;;;;;37.90;24.70;;;;;;;2.25;100.00;100430.91;5300943;28;20055;-75
2023/01/19 09:11:12;;;;;;;37.40;25.65;;;;;;;2.37;100.00;100442.28;5301628;28;20477;-75
2023/01/19 09:13:43;;;;;;;;;;;;;;;2.84;100.00;100446.44;5303473;28;20667;-75
2023/01/19 09:16:14;;;;;;;34.75;23.45;;;;;;;2.47;100.00;100447.78;5303626;28;19912;-75
2023/01/19 09:18:46;;;;;;;38.17;26.55;;;;;;;2.41;100.00;100439.44;5299662;28;20032;-75
2023/01/19 09:21:18;;;;;;;39.85;26.45;;;;;;;2.49;100.00;100451.09;5300920;28;20541;-75
2023/01/19 09:23:49;;;;;;;38.70;24.77;;;;;;;2.48;100.00;100450.28;5291079;28;20032;-75
2023/01/19 09:26:21;;;;;;;36.65;25.48;;;;;;;2.49;100.00;100456.28;5292331;28;20050;-75
2023/01/19 09:28:52;;;;;;;36.70;24.15;;;;;;;2.51;100.00;100451.84;5297571;28;20089;-75
2023/01/19 09:31:23;;;;;;;42.15;23.75;;;;;;;2.52;100.00;100454.34;5292212;28;20036;-76
2023/01/19 09:33:55;;;;;;;33.83;23.55;;;;;;;2.49;100.00;100454.50;5294035;28;20110;-75
2023/01/19 09:36:26;;;;;;;32.83;23.70;;;;;;;2.50;100.00;100452.75;5291999;28;20054;-76
2023/01/19 09:38:57;;;;;;;35.58;23.42;;;;;;;2.54;100.00;100464.59;5294388;28;20482;-75
2023/01/19 09:41:32;;;;;;;29.73;20.85;;;;;;;2.53;100.00;100460.34;5293788;28;20059;-75
2023/01/19 09:44:04;;;;;;;32.85;21.88;;;;;;;2.49;100.00;100469.19;5301474;28;20115;-75
2023/01/19 09:46:38;;;;;;;29.95;20.08;;;;;;;2.58;100.00;100474.69;5299652;28;20102;-75
2023/01/19 09:49:15;;;;;;;28.73;20.20;;;;;;;2.64;100.00;100476.91;5296850;28;20054;-75
2023/01/19 09:51:49;;;;;;;26.58;20.35;;;;;;;2.62;100.00;100478.75;5299313;28;20501;-75
2023/01/19 09:54:48;;;;;;;30.42;20.23;;;;;;;2.85;100.00;100481.78;5298090;28;20111;-75
2023/01/19 09:57:24;;;;;;;27.52;17.95;;;;;;;2.62;100.00;100481.34;5281881;28;20028;-75
2023/01/19 09:59:58;;;;;;;23.75;17.77;;;;;;;2.65;100.00;100485.50;5298339;28;20065;-75
2023/01/19 10:03:05;;;;;;;35.78;17.77;;;;;;;2.92;100.00;100480.50;5297539;28;20034;-75
2023/01/19 10:05:47;;;;;;;24.45;17.70;;;;;;;2.78;100.00;100480.47;5298718;28;20035;-75
2023/01/19 10:08:27;;;;;;;27.92;16.88;;;;;;;2.73;100.00;100491.09;5299708;28;20024;-75
2023/01/19 10:10:58;;;;;;;24.63;16.75;;;;;;;2.71;100.00;100490.31;5299772;28;20023;-75
2023/01/19 10:13:38;;;;;;;21.52;15.25;;;;;;;2.92;100.00;100501.19;5280619;28;20708;-75
2023/01/19 10:16:13;;;;;;;21.55;15.77;;;;;;;2.82;100.00;100503.47;5303222;28;20054;-75
2023/01/19 10:18:50;;;;;;;21.33;16.13;;;;;;;2.84;100.00;100500.78;5307129;28;20019;-75
2023/01/19 10:21:42;;;;;;;25.70;16.25;;;;;;;3.06;100.00;100500.38;5299414;28;20035;-74
2023/01/19 10:24:17;;;;;;;22.98;15.02;;;;;;;2.99;100.00;100510.22;5305406;28;20178;-74
2023/01/19 10:26:55;;;;;;;23.15;16.02;;;;;;;3.12;100.00;100503.44;5300804;28;20039;-75
2023/01/19 10:29:36;;;;;;;25.85;15.68;;;;;;;3.14;100.00;100506.78;5301485;28;20016;-75
2023/01/19 10:32:07;;;;;;;20.40;16.05;;;;;;;3.03;100.00;100509.16;5297621;28;20032;-75
2023/01/19 10:34:40;;;;;;;22.97;15.87;;;;;;;3.00;100.00;100498.97;5304374;28;20050;-75
2023/01/19 10:37:28;;;;;;;23.33;14.77;;;;;;;3.27;100.00;100516.38;5302678;28;20269;-75
2023/01/19 10:40:36;;;;;;;19.23;14.38;;;;;;;3.29;100.00;100511.94;5292533;28;20122;-75
2023/01/19 10:43:33;;;;;;;25.15;14.05;;;;;;;3.36;100.00;100508.06;5304857;28;20032;-75
2023/01/19 10:46:12;;;;;;;25.40;15.02;;;;;;;3.15;100.00;100511.03;5304519;28;20031;-75
2023/01/19 10:48:47;;;;;;;36.45;16.48;;;;;;;3.24;100.00;100513.97;5300200;28;20054;-75
2023/01/19 10:51:19;;;;;;;24.40;15.57;;;;;;;3.24;100.00;100513.97;5303964;28;20015;-75
2023/01/19 10:54:03;;;;;;;25.83;15.43;;;;;;;3.36;100.00;100516.66;5305277;28;20031;-75
2023/01/19 10:56:37;;;;;;;28.85;16.50;;;;;;;3.27;100.00;100511.22;5306787;28;20028;-75
2023/01/19 10:59:30;;;;;;;22.20;15.75;;;;;;;3.52;100.00;100513.13;5304073;28;20077;-75
2023/01/19 11:02:25;;;;;;;24.58;16.60;;;;;;;3.43;100.00;100519.72;5305348;28;20634;-75
2023/01/19 11:04:59;;;;;;;21.52;16.15;;;;;;;3.48;100.00;100516.84;5306224;28;20024;-75
2023/01/19 11:07:32;;;;;;;25.35;15.90;;;;;;;3.40;100.00;100501.78;5299745;28;20032;-75
2023/01/19 11:10:12;;;;;;;24.05;17.13;;;;;;;3.51;100.00;100509.72;5311066;28;20465;-76
2023/01/19 11:13:11;;;;;;;24.48;16.27;;;;;;;3.57;100.00;100503.34;5297157;28;20137;-76
2023/01/19 11:15:56;;;;;;;22.48;15.82;;;;;;;3.66;100.00;100501.00;5300368;28;20031;-76
2023/01/19 11:18:30;;;;;;;19.65;15.45;;;;;;;3.52;100.00;100501.03;5305222;28;20049;-76
2023/01/19 11:21:05;;;;;;;21.40;15.68;;;;;;;3.63;100.00;100508.13;5304475;28;20027;-76
2023/01/19 11:23:50;;;;;;;26.27;16.65;;;;;;;3.79;100.00;100514.06;5300374;28;20550;-76
2023/01/19 11:26:26;;;;;;;24.42;15.65;;;;;;;3.69;100.00;100512.97;5305857;28;20431;-75
2023/01/19 11:28:59;;;;;;;26.63;15.98;;;;;;;3.74;100.00;100508.31;5307927;28;20058;-76
2023/01/19 11:31:34;;;;;;;24.98;16.75;;;;;;;3.74;100.00;100495.34;5307002;28;20020;-76
2023/01/19 11:34:37;;;;;;;20.42;14.45;;;;;;;4.00;100.00;100504.09;5306098;28;20111;-76
2023/01/19 11:37:14;;;;;;;24.40;14.43;;;;;;;4.01;100.00;100508.34;5304466;28;20058;-75
2023/01/19 11:39:49;;;;;;;16.73;13.88;;;;;;;3.88;100.00;100513.47;5280483;28;20329;-76
2023/01/19 11:42:22;;;;;;;21.90;15.60;;;;;;;3.88;100.00;100499.69;5307630;28;20051;-75
2023/01/19 11:45:09;;;;;;;22.75;14.80;;;;;;;3.99;100.00;100502.44;5306852;28;20024;-75
2023/01/19 11:47:48;;;;;;;23.58;14.90;;;;;;;4.05;100.00;100509.84;5304909;28;20036;-75
2023/01/19 11:50:42;;;;;;;21.02;13.90;;;;;;;4.25;100.00;100505.16;5305518;28;20094;-75
2023/01/19 11:53:24;;;;;;;25.50;15.02;;;;;;;4.16;100.00;100511.75;5305316;28;20215;-75
2023/01/19 11:56:03;;;;;;;18.98;13.80;;;;;;;4.17;100.00;100508.25;5288296;28;20020;-75
2023/01/19 11:58:45;;;;;;;19.55;14.18;;;;;;;4.19;100.00;100505.53;5303432;28;20036;-75